sensor_id;sensor_type;location;lat;lon;timestamp;P1;durP1;ratioP1;P2;durP2;ratioP2
50309;SDS011;36207;51.850;21.698;2023-07-29T00:01:36;6.00;;;4.40;;
50309;SDS011;36207;51.850;21.698;2023-07-29T00:04:03;9.70;;;5.30;;
50309;SDS011;36207;51.850;21.698;2023-07-29T00:06:29;8.40;;;4.30;;
50309;SDS011;36207;51.850;21.698;2023-07-29T00:08:58;8.30;;;4.50;;
50309;SDS011;36207;51.850;21.698;2023-07-29T00:11:28;7.60;;;4.70;;
50309;SDS011;36207;51.850;21.698;2023-07-29T00:13:54;11.80;;;4.50;;
50309;SDS011;36207;51.850;21.698;2023-07-29T00:16:19;7.40;;;4.30;;
50309;SDS011;36207;51.850;21.698;2023-07-29T00:18:49;6.00;;;4.30;;
50309;SDS011;36207;51.850;21.698;2023-07-29T00:21:15;7.80;;;4.40;;
50309;SDS011;36207;51.850;21.698;2023-07-29T00:23:41;9.70;;;4.80;;
50309;SDS011;36207;51.850;21.698;2023-07-29T00:26:10;7.40;;;5.10;;
50309;SDS011;36207;51.850;21.698;2023-07-29T00:28:50;6.60;;;4.80;;
50309;SDS011;36207;51.850;21.698;2023-07-29T00:31:22;9.50;;;4.80;;
50309;SDS011;36207;51.850;21.698;2023-07-29T00:33:59;8.40;;;4.80;;
50309;SDS011;36207;51.850;21.698;2023-07-29T00:36:24;6.20;;;4.70;;
50309;SDS011;36207;51.850;21.698;2023-07-29T00:38:50;9.50;;;4.90;;
50309;SDS011;36207;51.850;21.698;2023-07-29T00:41:18;7.80;;;4.90;;
50309;SDS011;36207;51.850;21.698;2023-07-29T00:43:46;9.20;;;5.30;;
50309;SDS011;36207;51.850;21.698;2023-07-29T00:46:12;10.00;;;5.50;;
50309;SDS011;36207;51.850;21.698;2023-07-29T00:48:39;9.40;;;5.30;;
50309;SDS011;36207;51.850;21.698;2023-07-29T00:51:05;8.50;;;5.10;;
50309;SDS011;36207;51.850;21.698;2023-07-29T00:53:31;8.60;;;5.40;;
50309;SDS011;36207;51.850;21.698;2023-07-29T00:55:58;10.10;;;5.50;;
50309;SDS011;36207;51.850;21.698;2023-07-29T00:58:24;9.70;;;5.60;;
50309;SDS011;36207;51.850;21.698;2023-07-29T01:00:50;9.60;;;5.40;;
50309;SDS011;36207;51.850;21.698;2023-07-29T01:03:16;6.90;;;5.00;;
50309;SDS011;36207;51.850;21.698;2023-07-29T01:05:48;10.70;;;5.40;;
50309;SDS011;36207;51.850;21.698;2023-07-29T01:08:27;10.00;;;5.40;;
50309;SDS011;36207;51.850;21.698;2023-07-29T01:11:08;12.80;;;5.80;;
50309;SDS011;36207;51.850;21.698;2023-07-29T01:13:44;10.60;;;5.30;;
50309;SDS011;36207;51.850;21.698;2023-07-29T01:16:21;7.60;;;5.10;;
50309;SDS011;36207;51.850;21.698;2023-07-29T01:18:56;8.50;;;5.30;;
50309;SDS011;36207;51.850;21.698;2023-07-29T01:21:30;7.80;;;5.30;;
50309;SDS011;36207;51.850;21.698;2023-07-29T01:23:59;13.70;;;5.80;;
50309;SDS011;36207;51.850;21.698;2023-07-29T01:26:26;8.20;;;5.10;;
50309;SDS011;36207;51.850;21.698;2023-07-29T01:28:54;9.60;;;5.30;;
50309;SDS011;36207;51.850;21.698;2023-07-29T01:33:57;8.90;;;5.40;;
50309;SDS011;36207;51.850;21.698;2023-07-29T01:36:28;9.70;;;5.50;;
50309;SDS011;36207;51.850;21.698;2023-07-29T01:38:58;9.60;;;5.20;;
50309;SDS011;36207;51.850;21.698;2023-07-29T01:41:26;9.70;;;5.40;;
50309;SDS011;36207;51.850;21.698;2023-07-29T01:43:52;11.10;;;5.50;;
50309;SDS011;36207;51.850;21.698;2023-07-29T01:46:19;10.60;;;5.60;;
50309;SDS011;36207;51.850;21.698;2023-07-29T01:48:46;7.10;;;5.50;;
50309;SDS011;36207;51.850;21.698;2023-07-29T01:51:11;8.10;;;5.80;;
50309;SDS011;36207;51.850;21.698;2023-07-29T01:53:38;8.20;;;5.60;;
50309;SDS011;36207;51.850;21.698;2023-07-29T01:56:04;12.10;;;5.40;;
50309;SDS011;36207;51.850;21.698;2023-07-29T01:58:30;7.70;;;5.70;;
50309;SDS011;36207;51.850;21.698;2023-07-29T02:00:56;10.60;;;6.20;;
50309;SDS011;36207;51.850;21.698;2023-07-29T02:03:22;8.50;;;6.30;;
50309;SDS011;36207;51.850;21.698;2023-07-29T02:05:48;8.40;;;6.10;;
50309;SDS011;36207;51.850;21.698;2023-07-29T02:08:14;14.20;;;6.40;;
50309;SDS011;36207;51.850;21.698;2023-07-29T02:10:40;7.80;;;6.00;;
50309;SDS011;36207;51.850;21.698;2023-07-29T02:13:08;7.90;;;5.90;;
50309;SDS011;36207;51.850;21.698;2023-07-29T02:15:34;11.50;;;6.20;;
50309;SDS011;36207;51.850;21.698;2023-07-29T02:18:00;9.20;;;5.90;;
50309;SDS011;36207;51.850;21.698;2023-07-29T02:20:27;8.60;;;6.00;;
50309;SDS011;36207;51.850;21.698;2023-07-29T02:22:53;9.00;;;6.40;;
50309;SDS011;36207;51.850;21.698;2023-07-29T02:25:19;8.40;;;6.10;;
50309;SDS011;36207;51.850;21.698;2023-07-29T02:27:45;10.10;;;6.30;;
50309;SDS011;36207;51.850;21.698;2023-07-29T02:30:11;9.00;;;6.90;;
50309;SDS011;36207;51.850;21.698;2023-07-29T02:32:38;11.00;;;6.70;;
50309;SDS011;36207;51.850;21.698;2023-07-29T02:35:09;8.00;;;6.30;;
50309;SDS011;36207;51.850;21.698;2023-07-29T02:37:43;10.10;;;6.80;;
50309;SDS011;36207;51.850;21.698;2023-07-29T02:40:09;10.60;;;7.30;;
50309;SDS011;36207;51.850;21.698;2023-07-29T02:42:35;10.00;;;7.80;;
50309;SDS011;36207;51.850;21.698;2023-07-29T02:45:02;12.10;;;9.20;;
50309;SDS011;36207;51.850;21.698;2023-07-29T02:47:28;14.00;;;10.30;;
50309;SDS011;36207;51.850;21.698;2023-07-29T02:49:54;15.10;;;10.00;;
50309;SDS011;36207;51.850;21.698;2023-07-29T02:52:20;14.60;;;10.50;;
50309;SDS011;36207;51.850;21.698;2023-07-29T02:54:46;16.60;;;10.90;;
50309;SDS011;36207;51.850;21.698;2023-07-29T02:57:13;16.60;;;11.30;;
50309;SDS011;36207;51.850;21.698;2023-07-29T02:59:39;16.40;;;12.10;;
50309;SDS011;36207;51.850;21.698;2023-07-29T03:02:05;17.00;;;11.70;;
50309;SDS011;36207;51.850;21.698;2023-07-29T03:04:31;17.10;;;11.90;;
50309;SDS011;36207;51.850;21.698;2023-07-29T03:06:57;16.80;;;11.90;;
50309;SDS011;36207;51.850;21.698;2023-07-29T03:09:25;16.50;;;12.00;;
50309;SDS011;36207;51.850;21.698;2023-07-29T03:11:50;15.00;;;11.30;;
50309;SDS011;36207;51.850;21.698;2023-07-29T03:14:18;16.70;;;12.10;;
50309;SDS011;36207;51.850;21.698;2023-07-29T03:16:44;17.10;;;11.10;;
50309;SDS011;36207;51.850;21.698;2023-07-29T03:19:10;15.10;;;11.70;;
50309;SDS011;36207;51.850;21.698;2023-07-29T03:21:38;17.70;;;12.20;;
50309;SDS011;36207;51.850;21.698;2023-07-29T03:24:04;17.10;;;11.80;;
50309;SDS011;36207;51.850;21.698;2023-07-29T03:26:30;15.50;;;12.00;;
50309;SDS011;36207;51.850;21.698;2023-07-29T03:28:55;16.00;;;11.70;;
50309;SDS011;36207;51.850;21.698;2023-07-29T03:31:21;17.30;;;12.40;;
50309;SDS011;36207;51.850;21.698;2023-07-29T03:33:47;17.20;;;11.50;;
50309;SDS011;36207;51.850;21.698;2023-07-29T03:36:13;18.80;;;12.30;;
50309;SDS011;36207;51.850;21.698;2023-07-29T03:38:39;16.10;;;12.10;;
50309;SDS011;36207;51.850;21.698;2023-07-29T03:41:08;18.30;;;12.30;;
50309;SDS011;36207;51.850;21.698;2023-07-29T03:43:35;17.60;;;12.60;;
50309;SDS011;36207;51.850;21.698;2023-07-29T03:46:01;16.50;;;12.50;;
50309;SDS011;36207;51.850;21.698;2023-07-29T03:48:27;16.10;;;12.10;;
50309;SDS011;36207;51.850;21.698;2023-07-29T03:50:53;17.10;;;12.40;;
50309;SDS011;36207;51.850;21.698;2023-07-29T03:53:20;17.60;;;12.00;;
50309;SDS011;36207;51.850;21.698;2023-07-29T03:55:46;15.40;;;11.90;;
50309;SDS011;36207;51.850;21.698;2023-07-29T03:58:12;16.30;;;11.50;;
50309;SDS011;36207;51.850;21.698;2023-07-29T04:00:38;17.30;;;12.00;;
50309;SDS011;36207;51.850;21.698;2023-07-29T04:03:04;16.90;;;12.20;;
50309;SDS011;36207;51.850;21.698;2023-07-29T04:05:30;15.10;;;11.20;;
50309;SDS011;36207;51.850;21.698;2023-07-29T04:07:56;19.00;;;11.80;;
50309;SDS011;36207;51.850;21.698;2023-07-29T04:10:22;17.80;;;11.50;;
50309;SDS011;36207;51.850;21.698;2023-07-29T04:12:48;16.60;;;11.60;;
50309;SDS011;36207;51.850;21.698;2023-07-29T04:15:14;16.10;;;12.10;;
50309;SDS011;36207;51.850;21.698;2023-07-29T04:17:40;17.00;;;11.70;;
50309;SDS011;36207;51.850;21.698;2023-07-29T04:20:06;14.90;;;11.80;;
50309;SDS011;36207;51.850;21.698;2023-07-29T04:22:33;16.70;;;11.40;;
50309;SDS011;36207;51.850;21.698;2023-07-29T04:24:59;13.30;;;10.80;;
50309;SDS011;36207;51.850;21.698;2023-07-29T04:27:25;13.50;;;10.60;;
50309;SDS011;36207;51.850;21.698;2023-07-29T04:29:51;14.30;;;11.40;;
50309;SDS011;36207;51.850;21.698;2023-07-29T04:32:17;14.20;;;11.00;;
50309;SDS011;36207;51.850;21.698;2023-07-29T04:34:43;12.60;;;10.30;;
50309;SDS011;36207;51.850;21.698;2023-07-29T04:37:09;13.40;;;10.20;;
50309;SDS011;36207;51.850;21.698;2023-07-29T04:39:35;13.90;;;10.50;;
50309;SDS011;36207;51.850;21.698;2023-07-29T04:42:01;16.30;;;11.20;;
50309;SDS011;36207;51.850;21.698;2023-07-29T04:44:27;14.00;;;10.80;;
50309;SDS011;36207;51.850;21.698;2023-07-29T04:46:53;13.80;;;9.70;;
50309;SDS011;36207;51.850;21.698;2023-07-29T04:49:19;13.00;;;10.50;;
50309;SDS011;36207;51.850;21.698;2023-07-29T04:51:45;14.00;;;10.50;;
50309;SDS011;36207;51.850;21.698;2023-07-29T04:54:11;12.60;;;10.30;;
50309;SDS011;36207;51.850;21.698;2023-07-29T04:56:37;13.90;;;9.90;;
50309;SDS011;36207;51.850;21.698;2023-07-29T04:59:03;11.30;;;9.20;;
50309;SDS011;36207;51.850;21.698;2023-07-29T05:01:29;11.70;;;8.80;;
50309;SDS011;36207;51.850;21.698;2023-07-29T05:03:55;11.00;;;8.70;;
50309;SDS011;36207;51.850;21.698;2023-07-29T05:06:21;12.10;;;8.60;;
50309;SDS011;36207;51.850;21.698;2023-07-29T05:08:47;11.00;;;9.00;;
50309;SDS011;36207;51.850;21.698;2023-07-29T05:11:13;11.70;;;9.20;;
50309;SDS011;36207;51.850;21.698;2023-07-29T05:13:39;11.00;;;9.00;;
50309;SDS011;36207;51.850;21.698;2023-07-29T05:16:05;12.50;;;8.80;;
50309;SDS011;36207;51.850;21.698;2023-07-29T05:18:31;10.90;;;8.90;;
50309;SDS011;36207;51.850;21.698;2023-07-29T05:20:57;11.80;;;9.30;;
50309;SDS011;36207;51.850;21.698;2023-07-29T05:23:23;11.40;;;9.30;;
50309;SDS011;36207;51.850;21.698;2023-07-29T05:25:48;15.60;;;9.50;;
50309;SDS011;36207;51.850;21.698;2023-07-29T05:28:14;11.50;;;9.20;;
50309;SDS011;36207;51.850;21.698;2023-07-29T05:30:40;11.10;;;8.90;;
50309;SDS011;36207;51.850;21.698;2023-07-29T05:33:06;12.10;;;9.30;;
50309;SDS011;36207;51.850;21.698;2023-07-29T05:35:35;10.90;;;8.80;;
50309;SDS011;36207;51.850;21.698;2023-07-29T05:38:01;10.60;;;9.10;;
50309;SDS011;36207;51.850;21.698;2023-07-29T05:40:28;10.50;;;8.40;;
50309;SDS011;36207;51.850;21.698;2023-07-29T05:42:54;9.80;;;8.50;;
50309;SDS011;36207;51.850;21.698;2023-07-29T05:45:21;11.30;;;8.50;;
50309;SDS011;36207;51.850;21.698;2023-07-29T05:47:47;11.50;;;8.20;;
50309;SDS011;36207;51.850;21.698;2023-07-29T05:50:13;10.20;;;8.30;;
50309;SDS011;36207;51.850;21.698;2023-07-29T05:52:39;9.60;;;8.00;;
50309;SDS011;36207;51.850;21.698;2023-07-29T05:55:05;10.30;;;7.60;;
50309;SDS011;36207;51.850;21.698;2023-07-29T05:57:32;11.10;;;8.00;;
50309;SDS011;36207;51.850;21.698;2023-07-29T05:59:58;10.90;;;7.50;;
50309;SDS011;36207;51.850;21.698;2023-07-29T06:02:24;10.10;;;7.50;;
50309;SDS011;36207;51.850;21.698;2023-07-29T06:04:49;8.20;;;7.10;;
50309;SDS011;36207;51.850;21.698;2023-07-29T06:07:16;10.10;;;7.10;;
50309;SDS011;36207;51.850;21.698;2023-07-29T06:09:41;10.60;;;7.30;;
50309;SDS011;36207;51.850;21.698;2023-07-29T06:12:08;10.20;;;7.20;;
50309;SDS011;36207;51.850;21.698;2023-07-29T06:14:34;9.40;;;7.00;;
50309;SDS011;36207;51.850;21.698;2023-07-29T06:17:00;9.80;;;6.60;;
50309;SDS011;36207;51.850;21.698;2023-07-29T06:19:26;11.80;;;6.80;;
50309;SDS011;36207;51.850;21.698;2023-07-29T06:21:54;11.10;;;6.40;;
50309;SDS011;36207;51.850;21.698;2023-07-29T06:24:21;10.90;;;6.50;;
50309;SDS011;36207;51.850;21.698;2023-07-29T06:26:47;9.00;;;6.90;;
50309;SDS011;36207;51.850;21.698;2023-07-29T06:29:13;9.40;;;7.00;;
50309;SDS011;36207;51.850;21.698;2023-07-29T06:31:39;11.40;;;7.40;;
50309;SDS011;36207;51.850;21.698;2023-07-29T06:34:05;8.70;;;6.70;;
50309;SDS011;36207;51.850;21.698;2023-07-29T06:36:31;9.80;;;6.50;;
50309;SDS011;36207;51.850;21.698;2023-07-29T06:38:57;9.40;;;6.80;;
50309;SDS011;36207;51.850;21.698;2023-07-29T06:41:22;8.60;;;6.70;;
50309;SDS011;36207;51.850;21.698;2023-07-29T06:43:48;8.80;;;6.50;;
50309;SDS011;36207;51.850;21.698;2023-07-29T06:46:14;8.70;;;6.50;;
50309;SDS011;36207;51.850;21.698;2023-07-29T06:48:40;8.20;;;6.10;;
50309;SDS011;36207;51.850;21.698;2023-07-29T06:51:06;7.20;;;5.90;;
50309;SDS011;36207;51.850;21.698;2023-07-29T06:53:32;8.70;;;6.40;;
50309;SDS011;36207;51.850;21.698;2023-07-29T06:55:58;13.20;;;6.00;;
50309;SDS011;36207;51.850;21.698;2023-07-29T06:58:24;9.90;;;6.10;;
50309;SDS011;36207;51.850;21.698;2023-07-29T07:00:50;6.80;;;4.90;;
50309;SDS011;36207;51.850;21.698;2023-07-29T07:03:16;6.90;;;5.20;;
50309;SDS011;36207;51.850;21.698;2023-07-29T07:05:42;6.80;;;5.30;;
50309;SDS011;36207;51.850;21.698;2023-07-29T07:08:08;14.60;;;7.00;;
50309;SDS011;36207;51.850;21.698;2023-07-29T07:10:34;11.30;;;7.10;;
50309;SDS011;36207;51.850;21.698;2023-07-29T07:13:00;9.10;;;7.50;;
50309;SDS011;36207;51.850;21.698;2023-07-29T07:15:26;12.90;;;7.60;;
50309;SDS011;36207;51.850;21.698;2023-07-29T07:17:52;10.70;;;6.90;;
50309;SDS011;36207;51.850;21.698;2023-07-29T07:20:18;8.90;;;6.00;;
50309;SDS011;36207;51.850;21.698;2023-07-29T07:22:44;12.00;;;5.90;;
50309;SDS011;36207;51.850;21.698;2023-07-29T07:25:10;8.30;;;5.70;;
50309;SDS011;36207;51.850;21.698;2023-07-29T07:27:37;11.00;;;6.20;;
50309;SDS011;36207;51.850;21.698;2023-07-29T07:30:03;7.80;;;5.90;;
50309;SDS011;36207;51.850;21.698;2023-07-29T07:32:29;11.30;;;6.40;;
50309;SDS011;36207;51.850;21.698;2023-07-29T07:34:55;8.80;;;6.20;;
50309;SDS011;36207;51.850;21.698;2023-07-29T07:37:21;7.50;;;5.70;;
50309;SDS011;36207;51.850;21.698;2023-07-29T07:39:47;8.10;;;5.70;;
50309;SDS011;36207;51.850;21.698;2023-07-29T07:42:13;7.70;;;5.60;;
50309;SDS011;36207;51.850;21.698;2023-07-29T07:44:39;7.00;;;5.40;;
50309;SDS011;36207;51.850;21.698;2023-07-29T07:47:05;6.40;;;5.00;;
50309;SDS011;36207;51.850;21.698;2023-07-29T07:49:31;6.10;;;4.80;;
50309;SDS011;36207;51.850;21.698;2023-07-29T07:51:57;6.10;;;4.70;;
50309;SDS011;36207;51.850;21.698;2023-07-29T07:54:23;6.40;;;4.90;;
50309;SDS011;36207;51.850;21.698;2023-07-29T07:56:49;6.50;;;5.10;;
50309;SDS011;36207;51.850;21.698;2023-07-29T07:59:15;5.80;;;4.80;;
50309;SDS011;36207;51.850;21.698;2023-07-29T08:01:40;6.50;;;4.70;;
50309;SDS011;36207;51.850;21.698;2023-07-29T08:04:06;6.40;;;5.10;;
50309;SDS011;36207;51.850;21.698;2023-07-29T08:06:34;7.10;;;4.70;;
50309;SDS011;36207;51.850;21.698;2023-07-29T08:09:01;7.10;;;4.90;;
50309;SDS011;36207;51.850;21.698;2023-07-29T08:11:27;6.00;;;4.80;;
50309;SDS011;36207;51.850;21.698;2023-07-29T08:13:53;5.60;;;4.40;;
50309;SDS011;36207;51.850;21.698;2023-07-29T08:16:19;6.20;;;4.60;;
50309;SDS011;36207;51.850;21.698;2023-07-29T08:18:45;6.20;;;5.10;;
50309;SDS011;36207;51.850;21.698;2023-07-29T08:21:11;6.80;;;4.80;;
50309;SDS011;36207;51.850;21.698;2023-07-29T08:23:37;7.00;;;5.10;;
50309;SDS011;36207;51.850;21.698;2023-07-29T08:26:04;5.70;;;4.60;;
50309;SDS011;36207;51.850;21.698;2023-07-29T08:30:58;6.00;;;4.70;;
50309;SDS011;36207;51.850;21.698;2023-07-29T08:33:25;5.50;;;4.80;;
50309;SDS011;36207;51.850;21.698;2023-07-29T08:35:51;5.50;;;4.80;;
50309;SDS011;36207;51.850;21.698;2023-07-29T08:38:17;6.00;;;5.30;;
50309;SDS011;36207;51.850;21.698;2023-07-29T08:43:12;7.60;;;4.60;;
50309;SDS011;36207;51.850;21.698;2023-07-29T08:45:41;5.80;;;4.50;;
50309;SDS011;36207;51.850;21.698;2023-07-29T08:48:10;5.10;;;4.10;;
50309;SDS011;36207;51.850;21.698;2023-07-29T08:50:36;6.60;;;4.50;;
50309;SDS011;36207;51.850;21.698;2023-07-29T08:53:06;5.70;;;4.40;;
50309;SDS011;36207;51.850;21.698;2023-07-29T08:55:32;5.70;;;4.40;;
50309;SDS011;36207;51.850;21.698;2023-07-29T08:57:59;4.90;;;4.40;;
50309;SDS011;36207;51.850;21.698;2023-07-29T09:00:26;5.30;;;4.30;;
50309;SDS011;36207;51.850;21.698;2023-07-29T09:02:53;5.60;;;4.50;;
50309;SDS011;36207;51.850;21.698;2023-07-29T09:05:22;5.30;;;4.60;;
50309;SDS011;36207;51.850;21.698;2023-07-29T09:07:49;5.80;;;4.00;;
50309;SDS011;36207;51.850;21.698;2023-07-29T09:10:21;5.20;;;4.40;;
50309;SDS011;36207;51.850;21.698;2023-07-29T09:12:49;5.30;;;4.20;;
50309;SDS011;36207;51.850;21.698;2023-07-29T09:15:26;4.50;;;4.00;;
50309;SDS011;36207;51.850;21.698;2023-07-29T09:17:56;4.90;;;4.20;;
50309;SDS011;36207;51.850;21.698;2023-07-29T09:20:26;5.70;;;4.20;;
50309;SDS011;36207;51.850;21.698;2023-07-29T09:22:53;4.70;;;4.20;;
50309;SDS011;36207;51.850;21.698;2023-07-29T09:25:24;5.00;;;4.40;;
50309;SDS011;36207;51.850;21.698;2023-07-29T09:27:59;4.70;;;4.20;;
50309;SDS011;36207;51.850;21.698;2023-07-29T09:30:26;4.40;;;3.80;;
50309;SDS011;36207;51.850;21.698;2023-07-29T09:32:56;4.00;;;3.70;;
50309;SDS011;36207;51.850;21.698;2023-07-29T09:35:23;6.40;;;3.80;;
50309;SDS011;36207;51.850;21.698;2023-07-29T09:37:53;4.80;;;3.80;;
50309;SDS011;36207;51.850;21.698;2023-07-29T09:40:19;4.30;;;3.90;;
50309;SDS011;36207;51.850;21.698;2023-07-29T09:42:49;4.30;;;3.90;;
50309;SDS011;36207;51.850;21.698;2023-07-29T09:45:26;3.90;;;3.60;;
50309;SDS011;36207;51.850;21.698;2023-07-29T09:47:53;5.70;;;3.50;;
50309;SDS011;36207;51.850;21.698;2023-07-29T09:50:23;4.00;;;3.60;;
50309;SDS011;36207;51.850;21.698;2023-07-29T09:52:50;3.70;;;3.40;;
50309;SDS011;36207;51.850;21.698;2023-07-29T09:55:18;3.60;;;3.30;;
50309;SDS011;36207;51.850;21.698;2023-07-29T09:57:45;3.70;;;3.20;;
50309;SDS011;36207;51.850;21.698;2023-07-29T10:00:11;3.80;;;3.50;;
50309;SDS011;36207;51.850;21.698;2023-07-29T10:02:41;5.70;;;3.30;;
50309;SDS011;36207;51.850;21.698;2023-07-29T10:05:09;3.50;;;3.20;;
50309;SDS011;36207;51.850;21.698;2023-07-29T10:07:38;3.50;;;3.20;;
50309;SDS011;36207;51.850;21.698;2023-07-29T10:10:06;4.10;;;3.50;;
50309;SDS011;36207;51.850;21.698;2023-07-29T10:12:34;4.00;;;3.60;;
50309;SDS011;36207;51.850;21.698;2023-07-29T10:15:02;4.10;;;3.20;;
50309;SDS011;36207;51.850;21.698;2023-07-29T10:17:30;5.90;;;3.50;;
50309;SDS011;36207;51.850;21.698;2023-07-29T10:19:59;3.60;;;3.30;;
50309;SDS011;36207;51.850;21.698;2023-07-29T10:22:32;3.80;;;3.50;;
50309;SDS011;36207;51.850;21.698;2023-07-29T10:25:03;7.10;;;3.50;;
50309;SDS011;36207;51.850;21.698;2023-07-29T10:27:38;5.30;;;4.00;;
50309;SDS011;36207;51.850;21.698;2023-07-29T10:30:09;4.00;;;3.60;;
50309;SDS011;36207;51.850;21.698;2023-07-29T10:32:37;4.00;;;3.60;;
50309;SDS011;36207;51.850;21.698;2023-07-29T10:35:04;3.90;;;3.50;;
50309;SDS011;36207;51.850;21.698;2023-07-29T10:37:31;3.90;;;3.40;;
50309;SDS011;36207;51.850;21.698;2023-07-29T10:39:58;4.00;;;3.60;;
50309;SDS011;36207;51.850;21.698;2023-07-29T10:42:24;4.10;;;3.70;;
50309;SDS011;36207;51.850;21.698;2023-07-29T10:44:51;4.10;;;3.70;;
50309;SDS011;36207;51.850;21.698;2023-07-29T10:47:19;3.90;;;3.50;;
50309;SDS011;36207;51.850;21.698;2023-07-29T10:49:49;4.50;;;4.10;;
50309;SDS011;36207;51.850;21.698;2023-07-29T10:52:27;4.90;;;4.00;;
50309;SDS011;36207;51.850;21.698;2023-07-29T10:55:03;4.60;;;3.70;;
50309;SDS011;36207;51.850;21.698;2023-07-29T10:57:42;4.40;;;3.90;;
50309;SDS011;36207;51.850;21.698;2023-07-29T11:00:11;5.60;;;4.10;;
50309;SDS011;36207;51.850;21.698;2023-07-29T11:02:41;5.20;;;4.20;;
50309;SDS011;36207;51.850;21.698;2023-07-29T11:05:08;5.80;;;4.00;;
50309;SDS011;36207;51.850;21.698;2023-07-29T11:07:43;4.60;;;4.00;;
50309;SDS011;36207;51.850;21.698;2023-07-29T11:10:15;5.10;;;4.20;;
50309;SDS011;36207;51.850;21.698;2023-07-29T11:12:51;4.50;;;4.00;;
50309;SDS011;36207;51.850;21.698;2023-07-29T11:17:50;5.50;;;4.20;;
50309;SDS011;36207;51.850;21.698;2023-07-29T11:20:30;5.10;;;4.50;;
50309;SDS011;36207;51.850;21.698;2023-07-29T11:22:58;5.90;;;4.20;;
50309;SDS011;36207;51.850;21.698;2023-07-29T11:25:29;5.20;;;4.60;;
50309;SDS011;36207;51.850;21.698;2023-07-29T11:27:56;5.10;;;4.60;;
50309;SDS011;36207;51.850;21.698;2023-07-29T11:30:24;6.30;;;4.50;;
50309;SDS011;36207;51.850;21.698;2023-07-29T11:32:55;5.10;;;4.30;;
50309;SDS011;36207;51.850;21.698;2023-07-29T11:35:21;4.90;;;4.40;;
50309;SDS011;36207;51.850;21.698;2023-07-29T11:37:48;5.40;;;4.70;;
50309;SDS011;36207;51.850;21.698;2023-07-29T11:40:16;5.10;;;4.50;;
50309;SDS011;36207;51.850;21.698;2023-07-29T11:42:43;5.50;;;4.40;;
50309;SDS011;36207;51.850;21.698;2023-07-29T11:45:12;6.40;;;4.60;;
50309;SDS011;36207;51.850;21.698;2023-07-29T11:47:39;7.00;;;5.00;;
50309;SDS011;36207;51.850;21.698;2023-07-29T11:50:10;8.70;;;5.30;;
50309;SDS011;36207;51.850;21.698;2023-07-29T11:52:40;5.60;;;4.80;;
50309;SDS011;36207;51.850;21.698;2023-07-29T11:55:08;5.90;;;4.90;;
50309;SDS011;36207;51.850;21.698;2023-07-29T11:57:36;7.00;;;4.40;;
50309;SDS011;36207;51.850;21.698;2023-07-29T12:00:04;7.40;;;4.20;;
50309;SDS011;36207;51.850;21.698;2023-07-29T12:02:35;4.70;;;4.20;;
50309;SDS011;36207;51.850;21.698;2023-07-29T12:05:04;6.20;;;4.20;;
50309;SDS011;36207;51.850;21.698;2023-07-29T12:07:31;4.00;;;3.70;;
50309;SDS011;36207;51.850;21.698;2023-07-29T12:09:59;4.10;;;3.70;;
50309;SDS011;36207;51.850;21.698;2023-07-29T12:12:25;4.10;;;3.70;;
50309;SDS011;36207;51.850;21.698;2023-07-29T12:14:53;4.80;;;4.20;;
50309;SDS011;36207;51.850;21.698;2023-07-29T12:17:20;6.70;;;3.90;;
50309;SDS011;36207;51.850;21.698;2023-07-29T12:19:46;4.30;;;3.80;;
50309;SDS011;36207;51.850;21.698;2023-07-29T12:22:17;5.70;;;3.80;;
50309;SDS011;36207;51.850;21.698;2023-07-29T12:24:45;4.10;;;3.00;;
50309;SDS011;36207;51.850;21.698;2023-07-29T12:27:12;3.30;;;3.00;;
50309;SDS011;36207;51.850;21.698;2023-07-29T12:29:39;3.90;;;3.20;;
50309;SDS011;36207;51.850;21.698;2023-07-29T12:32:07;3.50;;;3.20;;
50309;SDS011;36207;51.850;21.698;2023-07-29T12:34:34;3.10;;;2.80;;
50309;SDS011;36207;51.850;21.698;2023-07-29T12:37:02;3.50;;;3.20;;
50309;SDS011;36207;51.850;21.698;2023-07-29T12:39:30;3.50;;;3.10;;
50309;SDS011;36207;51.850;21.698;2023-07-29T12:41:58;3.90;;;3.30;;
50309;SDS011;36207;51.850;21.698;2023-07-29T12:44:27;4.70;;;3.30;;
50309;SDS011;36207;51.850;21.698;2023-07-29T12:46:55;5.20;;;3.60;;
50309;SDS011;36207;51.850;21.698;2023-07-29T12:49:21;3.80;;;3.40;;
50309;SDS011;36207;51.850;21.698;2023-07-29T12:51:48;3.30;;;3.00;;
50309;SDS011;36207;51.850;21.698;2023-07-29T12:54:14;3.80;;;3.20;;
50309;SDS011;36207;51.850;21.698;2023-07-29T12:56:40;4.20;;;2.90;;
50309;SDS011;36207;51.850;21.698;2023-07-29T12:59:06;7.10;;;2.80;;
50309;SDS011;36207;51.850;21.698;2023-07-29T13:01:32;2.90;;;2.40;;
50309;SDS011;36207;51.850;21.698;2023-07-29T13:03:58;3.60;;;3.20;;
50309;SDS011;36207;51.850;21.698;2023-07-29T13:06:24;2.70;;;2.50;;
50309;SDS011;36207;51.850;21.698;2023-07-29T13:08:50;3.90;;;2.60;;
50309;SDS011;36207;51.850;21.698;2023-07-29T13:11:16;4.00;;;2.60;;
50309;SDS011;36207;51.850;21.698;2023-07-29T13:13:42;5.00;;;2.60;;
50309;SDS011;36207;51.850;21.698;2023-07-29T13:16:09;3.20;;;2.50;;
50309;SDS011;36207;51.850;21.698;2023-07-29T13:18:35;2.40;;;2.20;;
50309;SDS011;36207;51.850;21.698;2023-07-29T13:21:01;3.00;;;2.70;;
50309;SDS011;36207;51.850;21.698;2023-07-29T13:23:28;2.50;;;2.30;;
50309;SDS011;36207;51.850;21.698;2023-07-29T13:25:55;2.70;;;2.20;;
50309;SDS011;36207;51.850;21.698;2023-07-29T13:28:22;2.90;;;2.60;;
50309;SDS011;36207;51.850;21.698;2023-07-29T13:30:49;2.50;;;2.30;;
50309;SDS011;36207;51.850;21.698;2023-07-29T13:33:15;2.60;;;2.20;;
50309;SDS011;36207;51.850;21.698;2023-07-29T13:35:41;4.40;;;2.50;;
50309;SDS011;36207;51.850;21.698;2023-07-29T13:38:07;2.90;;;2.30;;
50309;SDS011;36207;51.850;21.698;2023-07-29T13:40:34;3.60;;;2.60;;
50309;SDS011;36207;51.850;21.698;2023-07-29T13:43:00;3.10;;;2.20;;
50309;SDS011;36207;51.850;21.698;2023-07-29T13:45:26;3.20;;;2.20;;
50309;SDS011;36207;51.850;21.698;2023-07-29T13:47:52;3.80;;;2.60;;
50309;SDS011;36207;51.850;21.698;2023-07-29T13:50:18;2.50;;;2.30;;
50309;SDS011;36207;51.850;21.698;2023-07-29T13:52:44;4.00;;;2.20;;
50309;SDS011;36207;51.850;21.698;2023-07-29T13:55:10;3.20;;;2.10;;
50309;SDS011;36207;51.850;21.698;2023-07-29T13:57:37;3.70;;;2.20;;
50309;SDS011;36207;51.850;21.698;2023-07-29T14:00:05;3.10;;;2.30;;
50309;SDS011;36207;51.850;21.698;2023-07-29T14:02:32;2.00;;;1.90;;
50309;SDS011;36207;51.850;21.698;2023-07-29T14:04:58;2.10;;;1.90;;
50309;SDS011;36207;51.850;21.698;2023-07-29T14:07:24;3.70;;;2.00;;
50309;SDS011;36207;51.850;21.698;2023-07-29T14:09:50;3.20;;;2.10;;
50309;SDS011;36207;51.850;21.698;2023-07-29T14:12:16;2.90;;;2.30;;
50309;SDS011;36207;51.850;21.698;2023-07-29T14:14:42;3.40;;;2.20;;
50309;SDS011;36207;51.850;21.698;2023-07-29T14:17:08;2.20;;;2.00;;
50309;SDS011;36207;51.850;21.698;2023-07-29T14:19:35;2.70;;;2.50;;
50309;SDS011;36207;51.850;21.698;2023-07-29T14:22:04;2.80;;;1.90;;
50309;SDS011;36207;51.850;21.698;2023-07-29T14:24:30;3.10;;;1.90;;
50309;SDS011;36207;51.850;21.698;2023-07-29T14:26:57;2.20;;;2.00;;
50309;SDS011;36207;51.850;21.698;2023-07-29T14:29:23;3.80;;;2.00;;
50309;SDS011;36207;51.850;21.698;2023-07-29T14:31:52;2.90;;;2.10;;
50309;SDS011;36207;51.850;21.698;2023-07-29T14:34:19;2.00;;;1.90;;
50309;SDS011;36207;51.850;21.698;2023-07-29T14:36:45;2.90;;;2.30;;
50309;SDS011;36207;51.850;21.698;2023-07-29T14:39:10;2.40;;;2.20;;